sensor_id;sensor_type;location;lat;lon;timestamp;pressure;altitude;pressure_sealevel;temperature
66113;BMP280;52893;52.870;5.822;2024-01-15T00:01:33;99842.06;;;3.53
66113;BMP280;52893;52.870;5.822;2024-01-15T00:04:00;99839.59;;;3.56
66113;BMP280;52893;52.870;5.822;2024-01-15T00:06:27;99828.50;;;3.58
66113;BMP280;52893;52.870;5.822;2024-01-15T00:08:56;99819.91;;;3.56
66113;BMP280;52893;52.870;5.822;2024-01-15T00:11:24;99824.28;;;3.52
66113;BMP280;52893;52.870;5.822;2024-01-15T00:13:51;99785.91;;;3.27
66113;BMP280;52893;52.870;5.822;2024-01-15T00:16:19;99812.09;;;3.40
66113;BMP280;52893;52.870;5.822;2024-01-15T00:18:46;99820.28;;;3.35
66113;BMP280;52893;52.870;5.822;2024-01-15T00:21:13;99806.84;;;3.30
66113;BMP280;52893;52.870;5.822;2024-01-15T00:23:42;99810.44;;;3.26
66113;BMP280;52893;52.870;5.822;2024-01-15T00:26:11;99804.88;;;3.22
66113;BMP280;52893;52.870;5.822;2024-01-15T00:28:39;99790.47;;;3.13
66113;BMP280;52893;52.870;5.822;2024-01-15T00:31:06;99796.31;;;3.20
66113;BMP280;52893;52.870;5.822;2024-01-15T00:33:33;99793.38;;;3.17
66113;BMP280;52893;52.870;5.822;2024-01-15T00:36:01;99789.00;;;3.21
66113;BMP280;52893;52.870;5.822;2024-01-15T00:38:29;99770.72;;;3.18
66113;BMP280;52893;52.870;5.822;2024-01-15T00:40:56;99776.31;;;3.21
66113;BMP280;52893;52.870;5.822;2024-01-15T00:43:24;99764.63;;;3.26
66113;BMP280;52893;52.870;5.822;2024-01-15T00:45:52;99764.31;;;3.27
66113;BMP280;52893;52.870;5.822;2024-01-15T00:48:19;99761.00;;;3.30
66113;BMP280;52893;52.870;5.822;2024-01-15T00:50:46;99768.00;;;3.31
66113;BMP280;52893;52.870;5.822;2024-01-15T00:53:13;99756.13;;;3.32
66113;BMP280;52893;52.870;5.822;2024-01-15T00:55:41;99764.72;;;3.34
66113;BMP280;52893;52.870;5.822;2024-01-15T00:58:08;99758.75;;;3.37
66113;BMP280;52893;52.870;5.822;2024-01-15T01:00:37;99755.38;;;3.45
66113;BMP280;52893;52.870;5.822;2024-01-15T01:03:04;99751.94;;;3.54
66113;BMP280;52893;52.870;5.822;2024-01-15T01:05:31;99727.97;;;3.52
66113;BMP280;52893;52.870;5.822;2024-01-15T01:07:58;99748.94;;;3.69
66113;BMP280;52893;52.870;5.822;2024-01-15T01:10:26;99745.66;;;3.72
66113;BMP280;52893;52.870;5.822;2024-01-15T01:12:53;99742.16;;;3.71
66113;BMP280;52893;52.870;5.822;2024-01-15T01:15:20;99745.97;;;3.70
66113;BMP280;52893;52.870;5.822;2024-01-15T01:17:49;99735.97;;;3.71
66113;BMP280;52893;52.870;5.822;2024-01-15T01:20:16;99742.97;;;3.72
66113;BMP280;52893;52.870;5.822;2024-01-15T01:22:43;99737.06;;;3.70
66113;BMP280;52893;52.870;5.822;2024-01-15T01:25:11;99723.97;;;3.63
66113;BMP280;52893;52.870;5.822;2024-01-15T01:27:38;99724.06;;;3.72
66113;BMP280;52893;52.870;5.822;2024-01-15T01:30:06;99715.97;;;3.72
66113;BMP280;52893;52.870;5.822;2024-01-15T01:32:33;99728.56;;;3.76
66113;BMP280;52893;52.870;5.822;2024-01-15T01:35:03;99722.34;;;3.76
66113;BMP280;52893;52.870;5.822;2024-01-15T01:37:30;99728.34;;;3.73
66113;BMP280;52893;52.870;5.822;2024-01-15T01:39:57;99728.34;;;3.73
66113;BMP280;52893;52.870;5.822;2024-01-15T01:42:24;99733.16;;;3.76
66113;BMP280;52893;52.870;5.822;2024-01-15T01:44:52;99730.13;;;3.77
66113;BMP280;52893;52.870;5.822;2024-01-15T01:47:19;99737.94;;;3.79
66113;BMP280;52893;52.870;5.822;2024-01-15T01:49:46;99727.44;;;3.77
66113;BMP280;52893;52.870;5.822;2024-01-15T01:52:15;99727.63;;;3.81
66113;BMP280;52893;52.870;5.822;2024-01-15T01:54:42;99730.94;;;3.78
66113;BMP280;52893;52.870;5.822;2024-01-15T01:57:10;99729.94;;;3.74
66113;BMP280;52893;52.870;5.822;2024-01-15T01:59:39;99717.19;;;3.66
66113;BMP280;52893;52.870;5.822;2024-01-15T02:02:06;99747.97;;;3.65
66113;BMP280;52893;52.870;5.822;2024-01-15T02:04:34;99765.75;;;3.66
66113;BMP280;52893;52.870;5.822;2024-01-15T02:07:02;99769.72;;;3.68
66113;BMP280;52893;52.870;5.822;2024-01-15T02:09:31;99765.94;;;3.69
66113;BMP280;52893;52.870;5.822;2024-01-15T02:11:59;99766.75;;;3.70
66113;BMP280;52893;52.870;5.822;2024-01-15T02:14:26;99749.56;;;3.66
66113;BMP280;52893;52.870;5.822;2024-01-15T02:16:53;99748.56;;;3.62
66113;BMP280;52893;52.870;5.822;2024-01-15T02:19:21;99737.94;;;3.52
66113;BMP280;52893;52.870;5.822;2024-01-15T02:21:48;99741.44;;;3.52
66113;BMP280;52893;52.870;5.822;2024-01-15T02:24:16;99721.41;;;3.44
66113;BMP280;52893;52.870;5.822;2024-01-15T02:26:44;99719.41;;;3.36
66113;BMP280;52893;52.870;5.822;2024-01-15T02:29:12;99719.59;;;3.26
66113;BMP280;52893;52.870;5.822;2024-01-15T02:31:39;99678.75;;;2.92
66113;BMP280;52893;52.870;5.822;2024-01-15T02:34:06;99706.41;;;3.11
66113;BMP280;52893;52.870;5.822;2024-01-15T02:36:34;99691.00;;;2.98
66113;BMP280;52893;52.870;5.822;2024-01-15T02:39:01;99714.06;;;3.04
66113;BMP280;52893;52.870;5.822;2024-01-15T02:41:30;99715.94;;;3.03
66113;BMP280;52893;52.870;5.822;2024-01-15T02:43:57;99711.38;;;3.04
66113;BMP280;52893;52.870;5.822;2024-01-15T02:46:25;99669.44;;;2.84
66113;BMP280;52893;52.870;5.822;2024-01-15T02:48:52;99718.28;;;3.10
66113;BMP280;52893;52.870;5.822;2024-01-15T02:51:19;99720.38;;;3.27
66113;BMP280;52893;52.870;5.822;2024-01-15T02:53:49;99716.19;;;3.34
66113;BMP280;52893;52.870;5.822;2024-01-15T02:56:17;99725.28;;;3.38
66113;BMP280;52893;52.870;5.822;2024-01-15T02:58:45;99742.47;;;3.42
66113;BMP280;52893;52.870;5.822;2024-01-15T03:01:13;99751.88;;;3.45
66113;BMP280;52893;52.870;5.822;2024-01-15T03:03:40;99749.97;;;3.45
66113;BMP280;52893;52.870;5.822;2024-01-15T03:06:07;99765.72;;;3.11
66113;BMP280;52893;52.870;5.822;2024-01-15T03:08:34;99761.06;;;2.98
66113;BMP280;52893;52.870;5.822;2024-01-15T03:11:02;99760.16;;;2.89
66113;BMP280;52893;52.870;5.822;2024-01-15T03:13:29;99745.19;;;2.83
66113;BMP280;52893;52.870;5.822;2024-01-15T03:15:58;99735.66;;;2.72
66113;BMP280;52893;52.870;5.822;2024-01-15T03:18:25;99742.50;;;2.83
66113;BMP280;52893;52.870;5.822;2024-01-15T03:20:52;99732.88;;;2.77
66113;BMP280;52893;52.870;5.822;2024-01-15T03:23:20;99751.06;;;2.85
66113;BMP280;52893;52.870;5.822;2024-01-15T03:25:47;99773.72;;;2.84
66113;BMP280;52893;52.870;5.822;2024-01-15T03:28:13;99776.56;;;2.92
66113;BMP280;52893;52.870;5.822;2024-01-15T03:30:40;99760.03;;;2.94
66113;BMP280;52893;52.870;5.822;2024-01-15T03:33:09;99764.84;;;2.97
66113;BMP280;52893;52.870;5.822;2024-01-15T03:35:36;99768.13;;;2.94
66113;BMP280;52893;52.870;5.822;2024-01-15T03:38:04;99774.69;;;3.06
66113;BMP280;52893;52.870;5.822;2024-01-15T03:40:31;99780.34;;;3.05
66113;BMP280;52893;52.870;5.822;2024-01-15T03:42:58;99774.38;;;3.08
66113;BMP280;52893;52.870;5.822;2024-01-15T03:45:25;99780.88;;;3.07
66113;BMP280;52893;52.870;5.822;2024-01-15T03:47:53;99754.50;;;3.04
66113;BMP280;52893;52.870;5.822;2024-01-15T03:50:21;99737.75;;;3.07
66113;BMP280;52893;52.870;5.822;2024-01-15T03:52:48;99735.56;;;3.09
66113;BMP280;52893;52.870;5.822;2024-01-15T03:55:16;99726.66;;;3.08
66113;BMP280;52893;52.870;5.822;2024-01-15T03:57:43;99720.75;;;3.06
66113;BMP280;52893;52.870;5.822;2024-01-15T04:00:11;99720.47;;;3.08
66113;BMP280;52893;52.870;5.822;2024-01-15T04:02:39;99724.34;;;3.02
66113;BMP280;52893;52.870;5.822;2024-01-15T04:05:07;99743.28;;;2.97
66113;BMP280;52893;52.870;5.822;2024-01-15T04:07:35;99763.47;;;2.99
66113;BMP280;52893;52.870;5.822;2024-01-15T04:10:03;99766.06;;;2.91
66113;BMP280;52893;52.870;5.822;2024-01-15T04:12:30;99754.28;;;2.87
66113;BMP280;52893;52.870;5.822;2024-01-15T04:14:58;99759.81;;;2.77
66113;BMP280;52893;52.870;5.822;2024-01-15T04:17:27;99754.88;;;2.65
66113;BMP280;52893;52.870;5.822;2024-01-15T04:19:54;99746.63;;;2.61
66113;BMP280;52893;52.870;5.822;2024-01-15T04:22:22;99739.03;;;2.63
66113;BMP280;52893;52.870;5.822;2024-01-15T04:24:51;99712.75;;;2.55
66113;BMP280;52893;52.870;5.822;2024-01-15T04:27:19;99728.16;;;2.68
66113;BMP280;52893;52.870;5.822;2024-01-15T04:29:46;99726.50;;;2.73
66113;BMP280;52893;52.870;5.822;2024-01-15T04:32:13;99715.03;;;2.81
66113;BMP280;52893;52.870;5.822;2024-01-15T04:34:40;99622.72;;;2.29
66113;BMP280;52893;52.870;5.822;2024-01-15T04:37:08;99693.13;;;2.68
66113;BMP280;52893;52.870;5.822;2024-01-15T04:39:35;99700.97;;;2.84
66113;BMP280;52893;52.870;5.822;2024-01-15T04:42:04;99697.78;;;2.82
66113;BMP280;52893;52.870;5.822;2024-01-15T04:44:31;99705.34;;;2.80
66113;BMP280;52893;52.870;5.822;2024-01-15T04:46:59;99708.03;;;2.80
66113;BMP280;52893;52.870;5.822;2024-01-15T04:49:26;99708.13;;;2.75
66113;BMP280;52893;52.870;5.822;2024-01-15T04:51:55;99702.81;;;2.69
66113;BMP280;52893;52.870;5.822;2024-01-15T04:54:22;99714.97;;;2.67
66113;BMP280;52893;52.870;5.822;2024-01-15T04:56:50;99710.09;;;2.69
66113;BMP280;52893;52.870;5.822;2024-01-15T04:59:18;99720.66;;;2.65
66113;BMP280;52893;52.870;5.822;2024-01-15T05:01:46;99740.03;;;2.67
66113;BMP280;52893;52.870;5.822;2024-01-15T05:04:19;99735.72;;;2.66
66113;BMP280;52893;52.870;5.822;2024-01-15T05:06:46;99718.66;;;2.57
66113;BMP280;52893;52.870;5.822;2024-01-15T05:09:13;99707.47;;;2.50
66113;BMP280;52893;52.870;5.822;2024-01-15T05:11:41;99679.94;;;2.53
66113;BMP280;52893;52.870;5.822;2024-01-15T05:14:08;99689.13;;;2.52
66113;BMP280;52893;52.870;5.822;2024-01-15T05:16:38;99684.03;;;2.51
66113;BMP280;52893;52.870;5.822;2024-01-15T05:19:07;99633.94;;;2.17
66113;BMP280;52893;52.870;5.822;2024-01-15T05:21:36;99661.31;;;2.38
66113;BMP280;52893;52.870;5.822;2024-01-15T05:24:03;99656.97;;;2.42
66113;BMP280;52893;52.870;5.822;2024-01-15T05:26:33;99661.78;;;2.45
66113;BMP280;52893;52.870;5.822;2024-01-15T05:29:00;99663.34;;;2.46
66113;BMP280;52893;52.870;5.822;2024-01-15T05:31:28;99657.97;;;2.46
66113;BMP280;52893;52.870;5.822;2024-01-15T05:33:56;99665.97;;;2.51
66113;BMP280;52893;52.870;5.822;2024-01-15T05:36:24;99660.59;;;2.51
66113;BMP280;52893;52.870;5.822;2024-01-15T05:38:51;99659.50;;;2.52
66113;BMP280;52893;52.870;5.822;2024-01-15T05:41:18;99667.19;;;2.59
66113;BMP280;52893;52.870;5.822;2024-01-15T05:43:46;99663.28;;;2.51
66113;BMP280;52893;52.870;5.822;2024-01-15T05:46:13;99667.72;;;2.61
66113;BMP280;52893;52.870;5.822;2024-01-15T05:48:41;99667.41;;;2.62
66113;BMP280;52893;52.870;5.822;2024-01-15T05:51:10;99675.78;;;2.61
66113;BMP280;52893;52.870;5.822;2024-01-15T05:53:40;99672.81;;;2.62
66113;BMP280;52893;52.870;5.822;2024-01-15T05:56:12;99676.59;;;2.61
66113;BMP280;52893;52.870;5.822;2024-01-15T05:58:39;99663.00;;;2.53
66113;BMP280;52893;52.870;5.822;2024-01-15T06:01:07;99681.47;;;2.59
66113;BMP280;52893;52.870;5.822;2024-01-15T06:03:34;99661.16;;;2.48
66113;BMP280;52893;52.870;5.822;2024-01-15T06:06:02;99673.19;;;2.69
66113;BMP280;52893;52.870;5.822;2024-01-15T06:08:31;99664.22;;;2.74
66113;BMP280;52893;52.870;5.822;2024-01-15T06:10:58;99661.22;;;2.76
66113;BMP280;52893;52.870;5.822;2024-01-15T06:13:25;99662.81;;;2.77
66113;BMP280;52893;52.870;5.822;2024-01-15T06:15:53;99652.63;;;2.74
66113;BMP280;52893;52.870;5.822;2024-01-15T06:18:20;99649.47;;;2.72
66113;BMP280;52893;52.870;5.822;2024-01-15T06:20:47;99652.22;;;2.66
66113;BMP280;52893;52.870;5.822;2024-01-15T06:23:14;99647.75;;;2.62
66113;BMP280;52893;52.870;5.822;2024-01-15T06:25:43;99612.06;;;2.38
66113;BMP280;52893;52.870;5.822;2024-01-15T06:28:10;99642.25;;;2.53
66113;BMP280;52893;52.870;5.822;2024-01-15T06:30:37;99642.81;;;2.50
66113;BMP280;52893;52.870;5.822;2024-01-15T06:33:05;99642.81;;;2.50
66113;BMP280;52893;52.870;5.822;2024-01-15T06:35:32;99641.22;;;2.49
66113;BMP280;52893;52.870;5.822;2024-01-15T06:38:00;99639.63;;;2.48
66113;BMP280;52893;52.870;5.822;2024-01-15T06:40:27;99639.63;;;2.48
66113;BMP280;52893;52.870;5.822;2024-01-15T06:42:56;99609.28;;;2.29
66113;BMP280;52893;52.870;5.822;2024-01-15T06:45:23;99638.81;;;2.48
66113;BMP280;52893;52.870;5.822;2024-01-15T06:47:50;99639.91;;;2.47
66113;BMP280;52893;52.870;5.822;2024-01-15T06:50:17;99645.00;;;2.48
66113;BMP280;52893;52.870;5.822;2024-01-15T06:52:45;99646.03;;;2.52
66113;BMP280;52893;52.870;5.822;2024-01-15T06:55:12;99648.63;;;2.57
66113;BMP280;52893;52.870;5.822;2024-01-15T06:57:39;99645.88;;;2.62
66113;BMP280;52893;52.870;5.822;2024-01-15T07:00:09;99636.06;;;2.66
66113;BMP280;52893;52.870;5.822;2024-01-15T07:02:37;99631.69;;;2.71
66113;BMP280;52893;52.870;5.822;2024-01-15T07:05:04;99587.25;;;2.41
66113;BMP280;52893;52.870;5.822;2024-01-15T07:07:32;99638.06;;;2.75
66113;BMP280;52893;52.870;5.822;2024-01-15T07:10:00;99634.28;;;2.76
66113;BMP280;52893;52.870;5.822;2024-01-15T07:12:27;99635.09;;;2.76
66113;BMP280;52893;52.870;5.822;2024-01-15T07:14:55;99631.59;;;2.76
66113;BMP280;52893;52.870;5.822;2024-01-15T07:17:24;99631.06;;;2.74
66113;BMP280;52893;52.870;5.822;2024-01-15T07:19:51;99649.47;;;2.72
66113;BMP280;52893;52.870;5.822;2024-01-15T07:22:18;99636.66;;;2.63
66113;BMP280;52893;52.870;5.822;2024-01-15T07:24:46;99641.44;;;2.66
66113;BMP280;52893;52.870;5.822;2024-01-15T07:27:13;99645.22;;;2.65
66113;BMP280;52893;52.870;5.822;2024-01-15T07:29:40;99642.38;;;2.62
66113;BMP280;52893;52.870;5.822;2024-01-15T07:32:08;99637.28;;;2.60
66113;BMP280;52893;52.870;5.822;2024-01-15T07:34:37;99632.63;;;2.47
66113;BMP280;52893;52.870;5.822;2024-01-15T07:37:05;99651.13;;;2.54
66113;BMP280;52893;52.870;5.822;2024-01-15T07:39:32;99616.34;;;2.25
66113;BMP280;52893;52.870;5.822;2024-01-15T07:42:00;99665.97;;;2.51
66113;BMP280;52893;52.870;5.822;2024-01-15T07:44:28;99663.78;;;2.53
66113;BMP280;52893;52.870;5.822;2024-01-15T07:46:55;99639.13;;;2.46
66113;BMP280;52893;52.870;5.822;2024-01-15T07:49:22;99637.72;;;2.49
66113;BMP280;52893;52.870;5.822;2024-01-15T07:51:51;99632.56;;;2.52
66113;BMP280;52893;52.870;5.822;2024-01-15T07:54:19;99640.56;;;2.57
66113;BMP280;52893;52.870;5.822;2024-01-15T07:56:56;99642.72;;;2.55
66113;BMP280;52893;52.870;5.822;2024-01-15T07:59:23;99639.25;;;2.55
66113;BMP280;52893;52.870;5.822;2024-01-15T08:01:51;99643.84;;;2.54
66113;BMP280;52893;52.870;5.822;2024-01-15T08:04:19;99663.19;;;2.56
66113;BMP280;52893;52.870;5.822;2024-01-15T08:06:46;99666.41;;;2.58
66113;BMP280;52893;52.870;5.822;2024-01-15T08:09:15;99669.66;;;2.55
66113;BMP280;52893;52.870;5.822;2024-01-15T08:11:42;99676.75;;;2.51
66113;BMP280;52893;52.870;5.822;2024-01-15T08:14:10;99670.13;;;2.44
66113;BMP280;52893;52.870;5.822;2024-01-15T08:16:38;99652.34;;;2.29
66113;BMP280;52893;52.870;5.822;2024-01-15T08:19:06;99657.53;;;2.25
66113;BMP280;52893;52.870;5.822;2024-01-15T08:21:33;99648.72;;;2.20
66113;BMP280;52893;52.870;5.822;2024-01-15T08:24:02;99647.72;;;2.16
66113;BMP280;52893;52.870;5.822;2024-01-15T08:26:30;99642.63;;;2.14
66113;BMP280;52893;52.870;5.822;2024-01-15T08:28:58;99621.53;;;2.03
66113;BMP280;52893;52.870;5.822;2024-01-15T08:31:25;99642.09;;;2.12
66113;BMP280;52893;52.870;5.822;2024-01-15T08:33:53;99632.13;;;2.13
66113;BMP280;52893;52.870;5.822;2024-01-15T08:36:21;99634.84;;;2.13
66113;BMP280;52893;52.870;5.822;2024-01-15T08:38:48;99633.75;;;2.14
66113;BMP280;52893;52.870;5.822;2024-01-15T08:41:16;99632.66;;;2.15
66113;BMP280;52893;52.870;5.822;2024-01-15T08:43:44;99636.63;;;2.17
66113;BMP280;52893;52.870;5.822;2024-01-15T08:46:12;99624.78;;;2.18
66113;BMP280;52893;52.870;5.822;2024-01-15T08:48:39;99628.28;;;2.19
66113;BMP280;52893;52.870;5.822;2024-01-15T08:51:06;99627.97;;;2.20
66113;BMP280;52893;52.870;5.822;2024-01-15T08:53:35;99622.22;;;2.27
66113;BMP280;52893;52.870;5.822;2024-01-15T08:56:02;99632.81;;;2.37
66113;BMP280;52893;52.870;5.822;2024-01-15T08:58:30;99626.44;;;2.47
66113;BMP280;52893;52.870;5.822;2024-01-15T09:00:58;99627.19;;;2.52
66113;BMP280;52893;52.870;5.822;2024-01-15T09:03:25;99627.69;;;2.54
66113;BMP280;52893;52.870;5.822;2024-01-15T09:05:53;99629.06;;;2.52
66113;BMP280;52893;52.870;5.822;2024-01-15T09:08:20;99636.63;;;2.50
66113;BMP280;52893;52.870;5.822;2024-01-15T09:10:48;99639.34;;;2.50
66113;BMP280;52893;52.870;5.822;2024-01-15T09:13:15;99643.06;;;2.54
66113;BMP280;52893;52.870;5.822;2024-01-15T09:15:42;99667.19;;;2.59
66113;BMP280;52893;52.870;5.822;2024-01-15T09:18:11;99662.59;;;2.59
66113;BMP280;52893;52.870;5.822;2024-01-15T09:20:38;99649.59;;;2.48
66113;BMP280;52893;52.870;5.822;2024-01-15T09:23:05;99631.00;;;2.33
66113;BMP280;52893;52.870;5.822;2024-01-15T09:25:33;99634.28;;;2.29
66113;BMP280;52893;52.870;5.822;2024-01-15T09:28:00;99622.53;;;2.25
66113;BMP280;52893;52.870;5.822;2024-01-15T09:30:28;99615.84;;;2.23
66113;BMP280;52893;52.870;5.822;2024-01-15T09:32:55;99618.81;;;2.21
66113;BMP280;52893;52.870;5.822;2024-01-15T09:35:24;99616.41;;;2.20
66113;BMP280;52893;52.870;5.822;2024-01-15T09:37:51;99617.22;;;2.20
66113;BMP280;52893;52.870;5.822;2024-01-15T09:40:20;99614.53;;;2.20
66113;BMP280;52893;52.870;5.822;2024-01-15T09:42:48;99612.06;;;2.24
66113;BMP280;52893;52.870;5.822;2024-01-15T09:45:16;99613.06;;;2.28
66113;BMP280;52893;52.870;5.822;2024-01-15T09:47:43;99614.06;;;2.32
66113;BMP280;52893;52.870;5.822;2024-01-15T09:50:11;99621.44;;;2.40
66113;BMP280;52893;52.870;5.822;2024-01-15T09:52:40;99625.06;;;2.49
66113;BMP280;52893;52.870;5.822;2024-01-15T09:55:08;99623.88;;;2.55
66113;BMP280;52893;52.870;5.822;2024-01-15T09:57:36;99620.75;;;2.81
66113;BMP280;52893;52.870;5.822;2024-01-15T10:00:05;99614.25;;;2.82
66113;BMP280;52893;52.870;5.822;2024-01-15T10:02:36;99646.50;;;3.00
66113;BMP280;52893;52.870;5.822;2024-01-15T10:05:04;99640.31;;;3.00
66113;BMP280;52893;52.870;5.822;2024-01-15T10:07:35;99659.16;;;3.00
66113;BMP280;52893;52.870;5.822;2024-01-15T10:10:05;99661.47;;;2.93
66113;BMP280;52893;52.870;5.822;2024-01-15T10:12:34;99673.81;;;2.94
66113;BMP280;52893;52.870;5.822;2024-01-15T10:15:01;99673.81;;;2.94
66113;BMP280;52893;52.870;5.822;2024-01-15T10:17:30;99685.22;;;2.91
66113;BMP280;52893;52.870;5.822;2024-01-15T10:19:58;99684.72;;;2.89
66113;BMP280;52893;52.870;5.822;2024-01-15T10:22:25;99692.00;;;2.88
66113;BMP280;52893;52.870;5.822;2024-01-15T10:24:53;99685.38;;;2.94
66113;BMP280;52893;52.870;5.822;2024-01-15T10:27:21;99691.22;;;3.01
66113;BMP280;52893;52.870;5.822;2024-01-15T10:29:49;99708.66;;;3.04
66113;BMP280;52893;52.870;5.822;2024-01-15T10:32:16;99710.06;;;2.88
66113;BMP280;52893;52.870;5.822;2024-01-15T10:34:43;99702.88;;;2.32
66113;BMP280;52893;52.870;5.822;2024-01-15T10:37:11;99670.91;;;2.12
66113;BMP280;52893;52.870;5.822;2024-01-15T10:39:38;99626.34;;;1.87
66113;BMP280;52893;52.870;5.822;2024-01-15T10:42:05;99671.94;;;2.16
66113;BMP280;52893;52.870;5.822;2024-01-15T10:44:35;99664.94;;;2.15
66113;BMP280;52893;52.870;5.822;2024-01-15T10:47:02;99677.31;;;2.16
66113;BMP280;52893;52.870;5.822;2024-01-15T10:49:31;99653.81;;;2.03
66113;BMP280;52893;52.870;5.822;2024-01-15T10:51:58;99672.75;;;2.16
66113;BMP280;52893;52.870;5.822;2024-01-15T10:54:26;99665.47;;;2.17
66113;BMP280;52893;52.870;5.822;2024-01-15T10:56:55;99657.88;;;2.19
66113;BMP280;52893;52.870;5.822;2024-01-15T10:59:23;99666.19;;;2.22
66113;BMP280;52893;52.870;5.822;2024-01-15T11:01:52;99669.09;;;2.26
66113;BMP280;52893;52.870;5.822;2024-01-15T11:04:20;99655.50;;;2.31
66113;BMP280;52893;52.870;5.822;2024-01-15T11:06:52;99647.06;;;2.24
66113;BMP280;52893;52.870;5.822;2024-01-15T11:09:19;99667.88;;;2.32
66113;BMP280;52893;52.870;5.822;2024-01-15T11:11:47;99653.84;;;2.35
66113;BMP280;52893;52.870;5.822;2024-01-15T11:14:33;99632.66;;;2.15
66113;BMP280;52893;52.870;5.822;2024-01-15T11:17:02;99627.69;;;2.22
66113;BMP280;52893;52.870;5.822;2024-01-15T11:19:36;99571.78;;;2.00
66113;BMP280;52893;52.870;5.822;2024-01-15T11:22:04;99630.84;;;2.43
66113;BMP280;52893;52.870;5.822;2024-01-15T11:24:36;99627.38;;;2.56
66113;BMP280;52893;52.870;5.822;2024-01-15T11:27:04;99631.09;;;2.60
66113;BMP280;52893;52.870;5.822;2024-01-15T11:29:32;99600.94;;;2.44
66113;BMP280;52893;52.870;5.822;2024-01-15T11:32:06;99653.59;;;2.83
66113;BMP280;52893;52.870;5.822;2024-01-15T11:34:54;99680.22;;;2.98
66113;BMP280;52893;52.870;5.822;2024-01-15T11:37:24;99704.47;;;2.98
66113;BMP280;52893;52.870;5.822;2024-01-15T11:39:53;99700.50;;;3.09
66113;BMP280;52893;52.870;5.822;2024-01-15T11:42:21;99682.34;;;3.15
66113;BMP280;52893;52.870;5.822;2024-01-15T11:44:49;99698.00;;;3.26
66113;BMP280;52893;52.870;5.822;2024-01-15T11:47:33;99695.41;;;3.35
66113;BMP280;52893;52.870;5.822;2024-01-15T11:50:06;99699.59;;;3.41
66113;BMP280;52893;52.870;5.822;2024-01-15T11:52:35;99726.22;;;3.47
66113;BMP280;52893;52.870;5.822;2024-01-15T11:55:11;99737.56;;;3.58
66113;BMP280;52893;52.870;5.822;2024-01-15T11:57:45;99743.56;;;3.55
66113;BMP280;52893;52.870;5.822;2024-01-15T12:00:14;99762.25;;;3.65
66113;BMP280;52893;52.870;5.822;2024-01-15T12:02:44;99762.34;;;3.74
66113;BMP280;52893;52.870;5.822;2024-01-15T12:05:12;99759.94;;;3.86
66113;BMP280;52893;52.870;5.822;2024-01-15T12:07:40;99759.31;;;3.89
66113;BMP280;52893;52.870;5.822;2024-01-15T12:10:10;99793.09;;;4.14
66113;BMP280;52893;52.870;5.822;2024-01-15T12:12:46;99798.09;;;4.43
66113;BMP280;52893;52.870;5.822;2024-01-15T12:15:14;99800.38;;;4.49
66113;BMP280;52893;52.870;5.822;2024-01-15T12:17:43;99804.59;;;4.42
66113;BMP280;52893;52.870;5.822;2024-01-15T12:20:11;99811.41;;;4.39
66113;BMP280;52893;52.870;5.822;2024-01-15T12:22:39;99806.63;;;4.36
66113;BMP280;52893;52.870;5.822;2024-01-15T12:25:06;99802.75;;;4.28
66113;BMP280;52893;52.870;5.822;2024-01-15T12:27:34;99808.50;;;4.13
66113;BMP280;52893;52.870;5.822;2024-01-15T12:30:01;99800.31;;;4.05
66113;BMP280;52893;52.870;5.822;2024-01-15T12:32:30;99804.81;;;3.96
66113;BMP280;52893;52.870;5.822;2024-01-15T12:34:58;99800.91;;;3.88
66113;BMP280;52893;52.870;5.822;2024-01-15T12:37:29;99795.09;;;3.81
66113;BMP280;52893;52.870;5.822;2024-01-15T12:39:58;99787.13;;;3.76
66113;BMP280;52893;52.870;5.822;2024-01-15T12:42:27;99799.72;;;3.80
66113;BMP280;52893;52.870;5.822;2024-01-15T12:44:56;99794.00;;;3.82
66113;BMP280;52893;52.870;5.822;2024-01-15T12:47:23;99788.03;;;3.85
66113;BMP280;52893;52.870;5.822;2024-01-15T12:49:51;99799.22;;;3.92
66113;BMP280;52893;52.870;5.822;2024-01-15T12:52:22;99812.72;;;3.92
66113;BMP280;52893;52.870;5.822;2024-01-15T12:54:49;99821.38;;;4.03
66113;BMP280;52893;52.870;5.822;2024-01-15T12:57:17;99822.69;;;4.05
66113;BMP280;52893;52.870;5.822;2024-01-15T12:59:45;99842.66;;;4.18
66113;BMP280;52893;52.870;5.822;2024-01-15T13:02:12;99845.44;;;4.26
66113;BMP280;52893;52.870;5.822;2024-01-15T13:04:40;99839.25;;;4.26
66113;BMP280;52893;52.870;5.822;2024-01-15T13:07:07;99848.84;;;4.18
66113;BMP280;52893;52.870;5.822;2024-01-15T13:09:36;99852.47;;;4.00
66113;BMP280;52893;52.870;5.822;2024-01-15T13:12:03;99832.72;;;3.91
66113;BMP280;52893;52.870;5.822;2024-01-15T13:14:31;99847.88;;;3.87
66113;BMP280;52893;52.870;5.822;2024-01-15T13:16:59;99851.50;;;3.82
66113;BMP280;52893;52.870;5.822;2024-01-15T13:19:26;99848.56;;;3.79
66113;BMP280;52893;52.870;5.822;2024-01-15T13:21:54;99847.59;;;3.75
66113;BMP280;52893;52.870;5.822;2024-01-15T13:24:21;99852.28;;;3.69
66113;BMP280;52893;52.870;5.822;2024-01-15T13:26:50;99854.59;;;3.76
66113;BMP280;52893;52.870;5.822;2024-01-15T13:29:17;99863.47;;;3.76
66113;BMP280;52893;52.870;5.822;2024-01-15T13:31:45;99865.84;;;3.78
66113;BMP280;52893;52.870;5.822;2024-01-15T13:34:13;99869.59;;;3.82
66113;BMP280;52893;52.870;5.822;2024-01-15T13:36:40;99869.00;;;3.85
66113;BMP280;52893;52.870;5.822;2024-01-15T13:39:07;99861.47;;;3.82
66113;BMP280;52893;52.870;5.822;2024-01-15T13:41:35;99876.06;;;3.81
66113;BMP280;52893;52.870;5.822;2024-01-15T13:44:04;99872.69;;;3.89
66113;BMP280;52893;52.870;5.822;2024-01-15T13:46:31;99869.09;;;3.94
66113;BMP280;52893;52.870;5.822;2024-01-15T13:48:59;99882.28;;;3.95
66113;BMP280;52893;52.870;5.822;2024-01-15T13:51:28;99883.28;;;3.99
66113;BMP280;52893;52.870;5.822;2024-01-15T13:53:56;99872.47;;;3.99
66113;BMP280;52893;52.870;5.822;2024-01-15T13:56:23;99875.69;;;4.01
66113;BMP280;52893;52.870;5.822;2024-01-15T13:58:50;99883.28;;;3.99
66113;BMP280;52893;52.870;5.822;2024-01-15T14:01:19;99881.41;;;3.86
66113;BMP280;52893;52.870;5.822;2024-01-15T14:03:47;99881.78;;;3.66
66113;BMP280;52893;52.870;5.822;2024-01-15T14:06:14;99880.69;;;3.67
66113;BMP280;52893;52.870;5.822;2024-01-15T14:08:41;99875.66;;;3.46
66113;BMP280;52893;52.870;5.822;2024-01-15T14:11:08;99893.75;;;3.27
66113;BMP280;52893;52.870;5.822;2024-01-15T14:13:36;99882.13;;;3.13
66113;BMP280;52893;52.870;5.822;2024-01-15T14:16:03;99886.84;;;3.02
66113;BMP280;52893;52.870;5.822;2024-01-15T14:18:32;99901.78;;;2.95
66113;BMP280;52893;52.870;5.822;2024-01-15T14:20:59;99903.00;;;2.89
66113;BMP280;52893;52.870;5.822;2024-01-15T14:23:27;99903.78;;;2.89
66113;BMP280;52893;52.870;5.822;2024-01-15T14:25:54;99921.34;;;2.87